createdAt,value
2018-10-19T00:00:09.270Z,79
2018-10-19T00:05:11.717Z,79.900002
2018-10-19T00:10:13.833Z,81.099998
2018-10-19T00:15:16.391Z,82
2018-10-19T00:20:18.465Z,82.400002
2018-10-19T00:25:20.831Z,82.699997
2018-10-19T00:30:23.051Z,82.699997
2018-10-19T00:35:26.977Z,82.300003
2018-10-19T00:40:27.678Z,82.199997
2018-10-19T00:45:30.085Z,82
2018-10-19T00:50:32.367Z,81.400002
2018-10-19T00:55:34.571Z,81.599998
2018-10-19T01:00:36.970Z,81.5
2018-10-19T01:05:39.197Z,81.800003
2018-10-19T01:10:41.507Z,81.599998
2018-10-19T01:15:43.746Z,81.199997
2018-10-19T01:20:46.122Z,81
2018-10-19T01:25:48.298Z,81.199997
2018-10-19T01:30:50.719Z,81.599998
2018-10-19T01:35:52.948Z,81.300003
2018-10-19T01:40:55.296Z,81
2018-10-19T01:45:57.626Z,81.099998
2018-10-19T01:56:02.323Z,80.900002
2018-10-19T02:01:04.327Z,81.099998
2018-10-19T02:06:06.694Z,81
2018-10-19T02:11:09.045Z,81
2018-10-19T02:16:11.235Z,81
2018-10-19T02:21:13.554Z,81.300003
2018-10-19T02:26:15.971Z,80.900002
2018-10-19T02:31:18.137Z,80.699997
2018-10-19T02:36:20.496Z,81
2018-10-19T02:41:22.844Z,80.800003
2018-10-19T02:46:25.058Z,80.800003
2018-10-19T02:51:27.310Z,80.900002
2018-10-19T02:56:29.661Z,81.099998
2018-10-19T03:01:31.917Z,81
2018-10-19T03:06:34.222Z,81.199997
2018-10-19T03:11:36.544Z,81.800003
2018-10-19T03:16:38.855Z,81.599998
2018-10-19T03:21:41.070Z,81.699997
2018-10-19T03:26:43.314Z,81.900002
2018-10-19T03:31:45.610Z,82
2018-10-19T03:36:48.213Z,81.800003
2018-10-19T03:41:50.382Z,81.800003
2018-10-19T03:46:52.639Z,82.5
2018-10-19T03:51:54.772Z,81.599998
2018-10-19T03:56:57.201Z,82.400002
2018-10-19T04:01:59.507Z,82.800003
2018-10-19T04:07:01.818Z,82.699997
2018-10-19T04:12:04.014Z,82.5
2018-10-19T04:17:06.292Z,82.699997
2018-10-19T04:22:08.658Z,83.099998
2018-10-19T04:27:11.160Z,83.199997
2018-10-19T04:32:13.316Z,83.300003
2018-10-19T04:37:15.559Z,83.800003
2018-10-19T04:42:17.864Z,83.699997
2018-10-19T04:47:20.028Z,83.800003
2018-10-19T04:52:22.373Z,84.400002
2018-10-19T04:57:24.778Z,84.099998
2018-10-19T05:02:27.029Z,84.599998
2018-10-19T05:07:29.289Z,84.800003
2018-10-19T05:12:31.642Z,85.099998
2018-10-19T05:17:35.673Z,85.5
2018-10-19T05:22:36.210Z,86.300003
2018-10-19T05:27:38.439Z,86.800003
2018-10-19T05:32:40.911Z,87.199997
2018-10-19T05:37:43.029Z,87.699997
2018-10-19T05:42:45.283Z,88.300003
2018-10-19T05:47:47.576Z,88.800003
2018-10-19T05:52:49.902Z,89.400002
2018-10-19T05:57:53.608Z,91
2018-10-19T06:02:54.739Z,91
2018-10-19T06:07:56.784Z,91.400002
2018-10-19T06:12:59.135Z,91
2018-10-19T06:23:03.732Z,92.599998
2018-10-19T06:28:06.072Z,92.800003
2018-10-19T06:33:08.258Z,92.900002
2018-10-19T06:38:10.557Z,92.800003
2018-10-19T06:43:12.876Z,94
2018-10-19T06:48:15.169Z,94.699997
2018-10-19T06:53:17.358Z,95.300003
2018-10-19T06:58:19.664Z,95
2018-10-19T07:03:22.077Z,94.400002
2018-10-19T07:08:24.339Z,93.900002
2018-10-19T07:13:26.618Z,92.900002
2018-10-19T07:18:30.131Z,91.099998
2018-10-19T07:23:31.230Z,90.800003
2018-10-19T07:28:33.445Z,91.300003
2018-10-19T07:33:35.750Z,90.800003
2018-10-19T07:38:38.111Z,89.800003
2018-10-19T07:43:40.328Z,90.400002
2018-10-19T07:48:42.685Z,88.900002
2018-10-19T07:53:45.016Z,88.199997
2018-10-19T07:58:47.314Z,86.599998
2018-10-19T08:03:49.603Z,87.699997
2018-10-19T08:08:51.825Z,86.199997
2018-10-19T08:13:54.198Z,85.099998
2018-10-19T08:18:56.535Z,84.099998
2018-10-19T08:23:58.666Z,83.599998
2018-10-19T08:29:01.166Z,84
2018-10-19T08:34:03.335Z,82.800003
2018-10-19T08:39:05.559Z,84.099998
2018-10-19T08:44:07.853Z,82.199997
2018-10-19T08:49:10.270Z,82.5
2018-10-19T08:54:12.487Z,81.300003
2018-10-19T08:59:14.899Z,80.300003
2018-10-19T09:04:17.035Z,80.099998
2018-10-19T09:09:19.465Z,80.599998
2018-10-19T09:14:21.662Z,79.099998
2018-10-19T09:19:23.969Z,77.599998
2018-10-19T09:24:26.316Z,76.199997
2018-10-19T09:29:28.574Z,76.599998
2018-10-19T09:34:30.851Z,75.699997
2018-10-19T09:39:33.140Z,75.800003
2018-10-19T09:44:35.426Z,76.5
2018-10-19T09:49:37.721Z,76
2018-10-19T09:54:40.060Z,75.599998
2018-10-19T09:59:42.279Z,75.5
2018-10-19T10:04:44.659Z,74.599998
2018-10-19T10:09:47.006Z,73.5
2018-10-19T10:14:49.334Z,74
2018-10-19T10:19:51.498Z,73.300003
2018-10-19T10:24:53.931Z,73.699997
2018-10-19T10:29:56.093Z,73.599998
2018-10-19T10:34:58.367Z,72.099998
2018-10-19T10:40:00.709Z,71.699997
2018-10-19T10:45:03.097Z,71.800003
2018-10-19T10:50:05.298Z,69.699997
2018-10-19T10:55:07.614Z,70.099998
2018-10-19T11:00:09.943Z,69.699997
2018-10-19T11:05:12.136Z,68.699997
2018-10-19T11:10:14.513Z,66.199997
2018-10-19T11:15:16.801Z,64.800003
2018-10-19T11:20:19.086Z,63
2018-10-19T11:25:21.338Z,60.400002
2018-10-19T11:30:23.678Z,55.299999
2018-10-19T11:35:25.860Z,55.900002
2018-10-19T11:40:28.309Z,52.799999
2018-10-19T11:45:30.507Z,50
2018-10-19T11:50:32.909Z,50.599998
2018-10-19T11:55:35.150Z,48
2018-10-19T12:00:37.384Z,48.900002
2018-10-19T12:05:39.604Z,48.799999
2018-10-19T12:10:42.143Z,49.200001
2018-10-19T12:15:44.241Z,47.099998
2018-10-19T12:20:46.719Z,49.799999
2018-10-19T12:25:48.902Z,47.799999
2018-10-19T12:30:51.209Z,48.799999
2018-10-19T12:35:53.370Z,46.799999
2018-10-19T12:40:55.813Z,47.5
2018-10-19T12:45:58.006Z,48.099998
2018-10-19T12:51:00.388Z,50.400002
2018-10-19T12:56:02.713Z,51.599998
2018-10-19T13:01:04.941Z,53
2018-10-19T13:06:07.609Z,55.299999
2018-10-19T13:11:09.513Z,55.299999
2018-10-19T13:16:11.923Z,56.700001
2018-10-19T13:21:14.179Z,59
2018-10-19T13:26:16.298Z,55.599998
2018-10-19T13:31:18.683Z,56.099998
2018-10-19T13:36:21.004Z,55.200001
2018-10-19T13:41:23.326Z,57.099998
2018-10-19T13:46:25.629Z,56.700001
2018-10-19T13:51:27.869Z,55
2018-10-19T13:56:31.376Z,56
2018-10-19T14:01:32.645Z,56.700001
2018-10-19T14:06:34.819Z,59.200001
2018-10-19T14:11:37.016Z,60.099998
2018-10-19T14:16:39.371Z,59.599998
2018-10-19T14:21:41.661Z,60.099998
2018-10-19T14:26:44.003Z,61.099998
2018-10-19T14:31:46.283Z,62.299999
2018-10-19T14:36:48.673Z,62.299999
2018-10-19T14:41:50.961Z,63.200001
2018-10-19T14:46:53.122Z,63.400002
2018-10-19T14:51:55.453Z,63.700001
2018-10-19T14:56:57.873Z,66
2018-10-19T15:02:00.015Z,65.699997
2018-10-19T15:07:02.312Z,66.099998
2018-10-19T15:12:04.751Z,65.800003
2018-10-19T15:17:06.858Z,66.400002
2018-10-19T15:22:09.175Z,64.800003
2018-10-19T15:27:11.607Z,65.5
2018-10-19T15:32:14.799Z,66
2018-10-19T15:37:16.095Z,65.800003
2018-10-19T15:42:18.480Z,66.300003
2018-10-19T15:47:20.986Z,67.400002
2018-10-19T15:52:22.935Z,66.199997
2018-10-19T15:57:25.324Z,66.400002
2018-10-19T16:02:27.599Z,66.300003
2018-10-19T16:07:29.804Z,66.5
2018-10-19T16:12:32.237Z,66.5
2018-10-19T16:17:34.566Z,67.099998
2018-10-19T16:22:36.892Z,67.599998
2018-10-19T16:27:39.171Z,68.199997
2018-10-19T16:32:41.329Z,68.599998
2018-10-19T16:37:43.602Z,68.199997
2018-10-19T16:42:45.877Z,69.400002
2018-10-19T16:47:48.123Z,68
2018-10-19T16:52:50.534Z,68.5
2018-10-19T16:57:52.789Z,69.099998
2018-10-19T17:02:55.137Z,69
2018-10-19T17:07:57.373Z,69.400002
2018-10-19T17:12:59.567Z,69.5
2018-10-19T17:18:01.967Z,69.099998
2018-10-19T17:23:04.310Z,69.400002
2018-10-19T17:28:06.587Z,68.800003
2018-10-19T17:33:08.826Z,69.400002
2018-10-19T17:38:11.110Z,68.900002
2018-10-19T17:43:13.495Z,70.599998
2018-10-19T17:48:15.709Z,72.599998
2018-10-19T17:53:18.015Z,73.099998
2018-10-19T17:58:20.509Z,72.699997
2018-10-19T18:03:22.636Z,72.800003
2018-10-19T18:08:24.802Z,73.300003
2018-10-19T18:13:27.139Z,75.099998
2018-10-19T18:18:29.756Z,73.400002
2018-10-19T18:23:31.826Z,73.300003
2018-10-19T18:28:34.065Z,73.199997
2018-10-19T18:33:36.346Z,73.5
2018-10-19T18:38:38.678Z,74.400002
2018-10-19T18:43:40.922Z,74.900002
2018-10-19T18:48:43.321Z,75.300003
2018-10-19T18:53:45.512Z,76.199997
2018-10-19T18:58:47.809Z,77.5
2018-10-19T19:03:50.214Z,78.800003
2018-10-19T19:08:52.405Z,78.800003
2018-10-19T19:13:54.838Z,79.099998
2018-10-19T19:18:56.938Z,80.5
2018-10-19T19:24:00.843Z,80.300003
2018-10-19T19:29:01.556Z,80.599998
2018-10-19T19:34:03.836Z,81.699997
2018-10-19T19:39:06.151Z,82.099998
2018-10-19T19:44:08.571Z,82.400002
2018-10-19T19:49:10.890Z,82.699997
2018-10-19T19:54:13.058Z,82.599998
2018-10-19T19:59:15.465Z,83.199997
2018-10-19T20:04:17.672Z,83.300003
2018-10-19T20:09:19.902Z,82.900002
2018-10-19T20:14:22.203Z,83.900002
2018-10-19T20:19:24.499Z,85.900002
2018-10-19T20:24:26.974Z,85.900002
2018-10-19T20:29:29.132Z,84.800003
2018-10-19T20:34:31.335Z,84.699997
2018-10-19T20:39:33.720Z,85.400002
2018-10-19T20:44:35.979Z,86.300003
2018-10-19T20:49:38.204Z,87.199997
2018-10-19T20:54:40.499Z,87.400002
2018-10-19T20:59:42.901Z,88
2018-10-19T21:04:45.135Z,88
2018-10-19T21:09:47.460Z,88.199997
2018-10-19T21:14:49.706Z,88.900002
2018-10-19T21:19:52.189Z,88.800003
2018-10-19T21:24:54.408Z,89.099998
2018-10-19T21:29:56.686Z,89.699997
2018-10-19T21:34:58.983Z,90.599998
2018-10-19T21:40:01.231Z,89.599998
2018-10-19T21:45:03.613Z,89.900002
2018-10-19T21:50:05.856Z,90.800003
2018-10-19T21:55:08.111Z,91.5
2018-10-19T22:00:10.387Z,92.800003
2018-10-19T22:05:12.816Z,91.599998
2018-10-19T22:10:14.933Z,92
2018-10-19T22:15:17.320Z,91.800003
2018-10-19T22:20:19.511Z,91.400002
2018-10-19T22:25:21.870Z,91.699997
2018-10-19T22:30:24.202Z,91.599998
2018-10-19T22:35:26.431Z,92.900002
2018-10-19T22:40:28.720Z,94
2018-10-19T22:45:31.016Z,95.199997
2018-10-19T22:50:33.228Z,95.099998
2018-10-19T22:55:35.727Z,94.5
2018-10-19T23:00:37.962Z,94.699997
2018-10-19T23:05:40.166Z,95.400002
2018-10-19T23:10:42.605Z,95.400002
2018-10-19T23:15:44.773Z,93.099998
2018-10-19T23:20:47.088Z,93.199997
2018-10-19T23:25:49.403Z,93.199997
2018-10-19T23:30:51.641Z,94.199997
2018-10-19T23:35:53.893Z,94.199997
2018-10-19T23:40:56.275Z,93.300003
2018-10-19T23:45:58.600Z,93.5
2018-10-19T23:51:00.896Z,94.300003
2018-10-19T23:56:03.092Z,95.300003
